Wylde Swan — PIWS — position and weather

sailwx.info

Track history (hours):
 
Tides and Currents Weather Stations Pressure Air Temp Water Temp Dewpoint Dewpoint Depression Visibility Wind Speed Wind Dir Waves Ship Positions

Wylde Swan

Last reported at 2017-Jul-12 16:51 UTC. Time now 2017-Aug-20 11:31 UTC.
Position N 45°27' W 073°30'.
Warning: this ship's position is 38 days out of date.

Length 45 m; draft 3.4 m.

Type: Sailing vessel. MMSI: 244074000.

Date/timePositionNaut miles runAvg speedWind from/ knotsBaromVisibWave heightAir tempDewpointWater temp
2017-Jul-12 16:51N 45°27' W 073°30'2 5.7
2017-Jul-12 16:30N 45°25' W 073°30'3 5.5
2017-Jul-12 16:00N 45°24' W 073°34'1 1.9
2017-Jul-12 15:30N 45°24' W 073°35'3 6.1
2017-Jul-12 15:00N 45°25' W 073°40'6 6.0
2017-Jul-12 14:00N 45°23' W 073°48'3 6.5
2017-Jul-12 13:30N 45°21' W 073°51'3 6.3
2017-Jul-12 13:00N 45°19' W 073°55'1 1.5
2017-Jul-12 12:30N 45°19' W 073°55'0 0.8
2017-Jul-12 12:00N 45°18' W 073°56'1 3.0
2017-Jul-12 11:30N 45°17' W 073°57'3 6.3
2017-Jul-12 10:58N 45°14' W 073°59'5 7.4
2017-Jul-12 10:16N 45°14' W 074°07'2 7.6
2017-Jul-12 10:00N 45°14' W 074°10'  
Track history (hours):
 
Tides and Currents Weather Stations Pressure Air Temp Water Temp Dewpoint Dewpoint Depression Visibility Wind Speed Wind Dir Waves Ship Positions

Wylde Swan

Last reported at 2017-Jul-12 16:51 UTC. Time now 2017-Aug-20 11:31 UTC.
Position N 45°27' W 073°30'.
Warning: this ship's position is 38 days out of date.

Length 45 m; draft 3.4 m.

Type: Sailing vessel. MMSI: 244074000.

Date/timePositionNaut miles runAvg speedWind from/ knotsBaromVisibWave heightAir tempDewpointWater temp
2017-Jul-12 16:51N 45°27' W 073°30'2 5.7
2017-Jul-12 16:30N 45°25' W 073°30'3 5.5
2017-Jul-12 16:00N 45°24' W 073°34'1 1.9
2017-Jul-12 15:30N 45°24' W 073°35'3 6.1
2017-Jul-12 15:00N 45°25' W 073°40'6 6.0
2017-Jul-12 14:00N 45°23' W 073°48'3 6.5
2017-Jul-12 13:30N 45°21' W 073°51'3 6.3
2017-Jul-12 13:00N 45°19' W 073°55'1 1.5
2017-Jul-12 12:30N 45°19' W 073°55'0 0.8
2017-Jul-12 12:00N 45°18' W 073°56'1 3.0
2017-Jul-12 11:30N 45°17' W 073°57'3 6.3
2017-Jul-12 10:58N 45°14' W 073°59'5 7.4
2017-Jul-12 10:16N 45°14' W 074°07'2 7.6
2017-Jul-12 10:00N 45°14' W 074°10'  

Dump ship's entire track history